Àlex Marín

Scout - Villarreal
2 Sep 2027
Donnerstag
Verarbeitung

Persönlichkeit

Anpassungsfähigkeit (12) Ehrgeiz (10) Kontroverse (1) Loyalität (11) Druck (20) Professionalität (20) Fairness (10) Temperament (7)

Profil

Trainerstil Demokratisch
Lizenz Kontinentale A
Entschlossenheit 6
Menschenführung 9
Motivation 15
Disziplin 8
Arbeitszufriedenheit
57%
Ermüdung
0%
Rolle Scout
Gehalt 19.0K p/W
Vertrag 14.03.2028

Leistung

Verhalten Gut
Trainingseffektivität
23%
Spielerentwicklung
35%
Verletzungsprävention
65%
Taktische Umsetzung
65%

Letzte Ereignisse

Nahm an einer Scouting-Besprechung teil jetzt
Nahm an einer Scouting-Besprechung teil 7T her
Nahm an einer Scouting-Besprechung teil 7T her
Nahm an einer Scouting-Besprechung teil 7T her
Spiel beobachtet 7T her
Spiel beobachtet 7T her
Spiel beobachtet 7T her
Spiel beobachtet 7T her

Aktuell beobachtet

102
Spieler Verein Status Fähigkeit Vertrauen Beobachtet Zuletzt beobachtet Letzte Stimme
Williams Mothiba Black Aces Aktiv 81 / 99 40% 1 05.07.2027 -
Majid Vafaei Rah Ahan Aktiv 114 / 108 40% 1 05.07.2027 -
Rodrigo Ely Almería Aktiv 123 / 119 51% 1 21.06.2027 -
Christos Mouzakitis Hull City Aktiv 133 / 133 40% 5 29.05.2027 -
William Gomes Porto Aktiv 133 / 147 40% 2 24.05.2027 -
Matías Gómez Granada Aktiv 108 / 126 40% 1 24.05.2027 -
Kevin Vazquez Cruz Azul Aktiv 137 / 135 40% 8 22.05.2027 -
Ibrahim Maza Bayer Leverkusen Aktiv 146 / 145 40% 1 22.05.2027 -
Senny Mayulu Paris Saint-Germain Aktiv 135 / 146 40% 1 19.05.2027 -
Yussif Saidu Zaragoza Aktiv 135 / 124 40% 1 19.05.2027 -
Jan Virgili Club Brugge Aktiv 137 / 132 40% 4 18.05.2027 -
Caleb Yirenkyi Coventry City Aktiv 136 / 139 40% 4 18.05.2027 -
Shea Lacey Wolverhampton Aktiv 115 / 132 40% 1 18.05.2027 -
Zane Albarus Cambridge United Aktiv 105 / 102 40% 1 18.05.2027 -
David Valencia Alianza Petrolera Aktiv 138 / 137 40% 1 17.05.2027 -
Sascha Britschgi Padova Aktiv 128 / 123 40% 1 17.05.2027 -
Lucas Høgsberg RC Strasbourg Aktiv 136 / 143 40% 1 15.05.2027 -
Jofre Torrents Ajax Aktiv 124 / 128 40% 1 14.05.2027 -
Joel McGregor Swindon Town Aktiv 85 / 100 40% 1 14.05.2027 -
Jorrel Hato Chelsea Aktiv 143 / 151 40% 4 10.05.2027 -
Yusi Alavés Aktiv 142 / 131 40% 1 10.05.2027 -
Gianluca Prestianni Benfica Aktiv 145 / 135 40% 2 09.05.2027 -
Oscar Schwartau Norwich City Aktiv 111 / 124 40% 2 09.05.2027 -
Lander Astiazarán Real Sociedad Aktiv 105 / 111 67% 2 08.05.2027 Beobachten
Josh King Chelsea Aktiv 147 / 149 40% 1 06.05.2027 -
Noah Nartey Olympique Lyonnais Aktiv 140 / 134 40% 1 06.05.2027 -
Othmane Maamma Watford Aktiv 125 / 125 40% 3 05.05.2027 -
David Mella Deportivo La Coruña Aktiv 142 / 130 40% 3 30.04.2027 -
Rodrigo Mora AS Roma Aktiv 136 / 145 40% 2 29.04.2027 -
Rayan Bournemouth Aktiv 127 / 141 40% 3 28.04.2027 -
Jayden Addai Como Aktiv 145 / 137 40% 2 26.04.2027 -
João Simões Sporting CP Aktiv 125 / 141 40% 1 25.04.2027 -
Mfundo Vilakazi Kaizer Chiefs Aktiv 116 / 126 40% 1 25.04.2027 -
Jon Garro Real Sociedad Aktiv 87 / 90 67% 1 24.04.2027 -
Warren Zaïre-Emery Paris Saint-Germain Aktiv 153 / 161 40% 2 21.04.2027 -
Kazunari Kita Real Sociedad Aktiv 94 / 104 40% 1 21.04.2027 -
Jonás Luna Santa Clara Aktiv 107 / 122 40% 1 19.04.2027 -
Yan Diomandé Real Madrid Aktiv 155 / 154 40% 3 18.04.2027 Beobachten
Izan Merino Málaga Aktiv 116 / 130 40% 1 18.04.2027 -
Olívio Tomé Benfica Aktiv 112 / 115 40% 3 16.04.2027 -
Jesús Rodríguez Como Aktiv 155 / 144 40% 1 16.04.2027 -
Matheus Gonçalves Al-Ahli Aktiv 138 / 133 40% 2 15.04.2027 -
Luís Guilherme Sporting CP Aktiv 133 / 133 40% 1 11.04.2027 -
Endrick Real Madrid Aktiv 135 / 150 40% 1 08.04.2027 -
Cyriaque Irié VfL Wolfsburg Aktiv 128 / 128 40% 1 08.04.2027 -
Samir El Mourabet RC Strasbourg Aktiv 118 / 130 40% 1 04.04.2027 -
Nico O'Reilly Manchester City Aktiv 161 / 155 40% 3 10.03.2027 -
Assane Diao Lazio Aktiv 156 / 148 40% 1 04.03.2027 -
Malick Fofana Sunderland Aktiv 136 / 144 40% 1 03.03.2027 -
Pedri Barcelona Aktiv 178 / 174 40% 11 27.12.2026 -
Jan Oblak Atlético Madrid Aktiv 167 / 163 40% 2 25.12.2026 -
Flavien-Enzo Boyomo Osasuna Aktiv 143 / 149 40% 1 25.12.2026 -
Aitor Paredes Athletic Bilbao Aktiv 148 / 151 40% 1 25.12.2026 -
Gianluigi Donnarumma Manchester City Aktiv 165 / 170 40% 1 25.12.2026 -
José Ángel Carmona Sevilla Aktiv 155 / 151 40% 3 21.12.2026 -
Marc Guéhi Manchester City Aktiv 164 / 169 40% 1 21.12.2026 -
Fran García Betis Aktiv 147 / 151 40% 1 20.12.2026 -
Erick Reyes Toluca Verhandlung 123 / 148 40% 4 19.12.2026 -
Raúl Rangel Sporting CP Aktiv 137 / 138 40% 2 18.12.2026 -
Álvaro Valles Betis Aktiv 156 / 142 40% 1 17.12.2026 -
Declan Rice Arsenal Aktiv 191 / 189 40% 4 16.12.2026 -
Aurélien Tchouaméni Real Madrid Aktiv 163 / 166 40% 3 16.12.2026 -
Wesley Fofana Chelsea Aktiv 153 / 162 40% 2 14.12.2026 -
Gavi Barcelona Aktiv 168 / 167 40% 3 11.12.2026 -
Julen Agirrezabala Racing Santander Aktiv 147 / 146 40% 1 11.12.2026 -
Sandro Tonali Tottenham Aktiv 169 / 170 40% 4 10.12.2026 -
Martín Zubimendi Arsenal Aktiv 156 / 161 40% 1 10.12.2026 -
David Soria Getafe Aktiv 137 / 138 40% 2 07.12.2026 -
Max O'Leary West Bromwich Albion Aktiv 127 / 124 40% 1 06.12.2026 -
Unai Simón Athletic Bilbao Aktiv 150 / 162 40% 1 05.12.2026 -
Tomás Marchiori Vélez Aktiv 133 / 132 40% 2 02.12.2026 -
Alfonso Herrero Málaga Aktiv 126 / 127 40% 3 02.12.2026 -
Alexis Mac Allister Liverpool Aktiv 171 / 159 40% 3 27.11.2026 -
Conor Gallagher Tottenham Aktiv 151 / 153 40% 2 25.11.2026 -
Antonio Sivera Alavés Aktiv 154 / 145 40% 2 23.11.2026 -
Facundo Cambeses Racing Club Aktiv 127 / 132 40% 2 21.11.2026 -
Senne Lammens Manchester United Aktiv 153 / 152 40% 2 18.11.2026 -
David Raya Arsenal Aktiv 153 / 162 40% 1 17.11.2026 -
Micky van de Ven Tottenham Aktiv 164 / 153 40% 1 10.11.2026 -
Jorge Soto Aguilas Doradas Aktiv 110 / 122 40% 1 10.11.2026 -
Eduardo Camavinga Real Madrid Aktiv 162 / 166 40% 1 08.11.2026 -
Luis Ingolotti Atlético Tucumán Aktiv 121 / 122 40% 1 07.11.2026 -
Enzo Fernández Manchester City Aktiv 167 / 171 40% 3 04.11.2026 -
Óscar Mingueza Crystal Palace Aktiv 137 / 146 40% 2 28.10.2026 -
Adam Wharton Crystal Palace Aktiv 156 / 158 40% 1 28.10.2026 -
Nico González Newcastle United Aktiv 157 / 158 40% 6 27.10.2026 -
Jules Koundé Barcelona Aktiv 159 / 154 40% 1 27.10.2026 -
Matthijs de Ligt Manchester United Aktiv 151 / 156 40% 3 26.10.2026 -
Jan Paul van Hecke Tottenham Aktiv 153 / 160 40% 5 25.10.2026 -
Vitinha Paris Saint-Germain Aktiv 191 / 178 40% 2 25.10.2026 -
Ryan Gravenberch Liverpool Aktiv 167 / 156 40% 1 23.10.2026 -
Moisés Caicedo Chelsea Aktiv 160 / 166 40% 1 22.10.2026 -
Amadou Onana Aston Villa Aktiv 162 / 158 40% 1 14.10.2026 -
Sven Botman Newcastle United Aktiv 170 / 156 40% 1 08.10.2026 -
Morten Hjulmand Atlético Madrid Aktiv 157 / 152 40% 2 06.10.2026 -
Johnny Cardoso Atlético Madrid Aktiv 151 / 158 40% 2 02.10.2026 -
Dani Vivian Athletic Bilbao Aktiv 156 / 151 40% 1 01.10.2026 -
Tino Livramento Newcastle United Aktiv 141 / 152 40% 1 30.09.2026 -
Hector Ramirez Newcastle United Aktiv 140 / 151 40% 1 26.09.2026 -
William Saliba Arsenal Aktiv 176 / 175 40% 1 26.09.2026 -
Levi Colwill Chelsea Aktiv 158 / 158 40% 1 18.09.2026 -
David Cordova Atletico Venezuela Aktiv 81 / 91 40% 1 11.08.2026 -